Time;durP1;ratioP1;P1;durP2;ratioP2;P2;SDS_P1;SDS_P2;PMS_P1;PMS_P2;Temp;Humidity;BMP_temperature;BMP_pressure;BME280_temperature;BME280_humidity;BME280_pressure;Samples;Min_cycle;Max_cycle;Signal;HPM_P1;HPM_P2
2021/11/11 09:38:58;;;;;;;;;51.50;37.50;;;;;16.53;45.79;102220.34;5132284;27;45364;-56
2021/11/11 09:41:24;;;;;;;;;43.75;36.00;;;;;16.61;45.84;102216.91;5115409;27;45459;-56
2021/11/11 09:43:50;;;;;;;;;48.25;39.00;;;;;16.71;45.93;102226.78;5115762;27;45415;-55
2021/11/11 09:46:19;;;;;;;;;48.50;39.50;;;;;16.84;45.74;102225.22;5115513;27;45714;-56
2021/11/11 09:48:45;;;;;;;;;49.75;40.50;;;;;16.96;45.44;102224.53;5115003;27;46207;-56
2021/11/11 09:51:14;;;;;;;;;45.75;36.75;;;;;17.09;45.50;102230.03;5115149;27;45391;-57
2021/11/11 09:53:53;;;;;;;;;47.50;37.25;;;;;17.20;45.32;102231.09;5115588;27;45344;-57
2021/11/11 09:59:02;;;;;;;;;49.00;39.50;;;;;17.43;45.27;102225.19;5114795;27;45319;-56
2021/11/11 10:01:28;;;;;;;;;48.00;39.75;;;;;17.52;44.87;102219.09;5115042;27;45468;-56
2021/11/11 10:03:54;;;;;;;;;47.75;39.00;;;;;17.61;44.96;102220.97;5115242;27;45425;-57
2021/11/11 10:06:25;;;;;;;;;49.25;38.00;;;;;17.69;44.67;102221.94;5115516;27;45262;-56
2021/11/11 10:08:53;;;;;;;;;49.00;39.00;;;;;17.78;44.90;102217.59;5114692;27;46258;-56
2021/11/11 10:11:49;;;;;;;;;44.75;37.25;;;;;17.85;44.63;102210.59;5114591;27;45362;-57
2021/11/11 10:14:18;;;;;;;;;49.00;40.25;;;;;17.91;44.61;102216.88;5115019;27;45384;-57
2021/11/11 10:16:48;;;;;;;;;50.25;40.25;;;;;17.97;44.68;102204.50;5114895;27;45184;-57
2021/11/11 10:19:15;;;;;;;;;49.00;39.00;;;;;18.02;44.32;102197.47;5114354;27;46341;-55
2021/11/11 10:22:11;;;;;;;;;49.50;39.50;;;;;18.08;44.28;102188.66;5114796;27;45459;-56
2021/11/11 10:24:51;;;;;;;;;50.00;39.25;;;;;18.13;44.28;102178.91;5115050;27;45297;-56
2021/11/11 10:27:37;;;;;;;;;50.75;41.00;;;;;18.18;44.11;102177.25;5115098;27;45430;-56
2021/11/11 10:30:27;;;;;;;;;53.00;40.50;;;;;18.23;44.17;102182.59;5114411;27;47232;-56
2021/11/11 10:32:58;;;;;;;;;50.00;40.75;;;;;18.26;44.08;102177.28;5114570;27;45317;-57
2021/11/11 10:35:31;;;;;;;;;49.00;39.00;;;;;18.30;43.87;102170.25;5114832;27;45333;-56
2021/11/11 10:38:02;;;;;;;;;50.25;42.25;;;;;18.32;43.81;102172.03;5114607;27;45229;-56
2021/11/11 10:40:32;;;;;;;;;52.50;40.00;;;;;18.34;43.99;102180.03;5114372;27;45452;-57
2021/11/11 10:43:00;;;;;;;;;48.25;39.00;;;;;18.38;43.85;102180.06;5114573;27;45428;-57
2021/11/11 10:45:29;;;;;;;;;50.25;40.75;;;;;18.39;43.69;102184.50;5114742;27;45270;-56
2021/11/11 10:47:58;;;;;;;;;50.50;41.00;;;;;18.43;43.53;102189.84;5114903;27;45410;-57
2021/11/11 10:50:32;;;;;;;;;53.50;42.75;;;;;18.44;43.26;102188.97;5100131;27;46246;-56
2021/11/11 10:52:59;;;;;;;;;52.50;43.00;;;;;18.45;43.45;102196.06;5100315;27;45266;-55
2021/11/11 10:55:34;;;;;;;;;52.00;42.00;;;;;18.48;43.14;102196.13;5100787;27;45463;-57
2021/11/11 10:58:13;;;;;;;;;55.00;43.25;;;;;18.48;43.16;102193.44;5101032;27;45420;-55
2021/11/11 11:00:44;;;;;;;;;49.75;41.75;;;;;18.51;43.12;102193.47;5100400;27;46157;-56
2021/11/11 11:03:21;;;;;;;;;50.00;41.00;;;;;18.52;43.21;102185.50;5098277;27;45247;-53
2021/11/11 11:06:10;;;;;;;;;50.00;40.00;;;;;18.54;43.44;102174.84;5100184;27;45460;-57
2021/11/11 11:08:41;;;;;;;;;51.75;41.00;;;;;18.54;43.37;102173.97;5100545;27;45367;-55
2021/11/11 11:11:22;;;;;;;;;50.50;42.50;;;;;18.56;42.98;102161.53;5099905;27;46124;-57
2021/11/11 11:13:50;;;;;;;;;52.75;41.25;;;;;18.57;42.90;102166.00;5099870;27;45325;-56
2021/11/11 11:16:18;;;;;;;;;48.25;39.50;;;;;18.56;42.95;102154.47;5100370;27;45375;-57
2021/11/11 11:18:57;;;;;;;;;50.25;40.50;;;;;18.57;42.98;102137.56;5100465;27;45221;-57
2021/11/11 11:21:27;;;;;;;;;53.50;42.50;;;;;18.56;42.85;102130.50;5099799;27;46072;-57
2021/11/11 11:23:57;;;;;;;;;48.50;38.75;;;;;18.59;43.19;102137.63;5099952;27;45261;-57
2021/11/11 11:26:26;;;;;;;;;50.25;42.25;;;;;18.60;43.16;102136.72;5099896;27;45365;-56
2021/11/11 11:29:07;;;;;;;;;53.25;42.25;;;;;18.60;42.59;102132.28;5100184;27;45315;-56
2021/11/11 11:32:19;;;;;;;;;50.50;41.00;;;;;18.61;42.96;102128.72;5099576;27;47060;-56
2021/11/11 11:35:00;;;;;;;;;54.00;43.50;;;;;18.62;42.79;102135.84;5099342;27;45385;-56
2021/11/11 11:37:33;;;;;;;;;54.25;42.50;;;;;18.61;42.83;102136.72;5099816;27;45412;-57
2021/11/11 11:40:02;;;;;;;;;49.00;39.25;;;;;18.63;42.91;102139.41;5099834;27;45627;-57
2021/11/11 11:42:35;;;;;;;;;52.00;41.75;;;;;18.63;42.67;102136.75;5099504;27;46370;-57
2021/11/11 11:45:05;;;;;;;;;49.00;39.75;;;;;18.63;42.74;102134.94;5099717;27;45378;-57
2021/11/11 11:47:38;;;;;;;;;48.75;40.50;;;;;18.63;42.83;102142.06;5099643;27;45417;-56
2021/11/11 11:50:25;;;;;;;;;48.75;39.75;;;;;18.65;42.99;102139.41;5099989;27;45214;-57
2021/11/11 11:52:57;;;;;;;;;48.50;40.25;;;;;18.66;42.84;102133.19;5099436;27;45246;-56
2021/11/11 11:55:28;;;;;;;;;49.75;40.75;;;;;18.65;42.44;102135.00;5099368;27;45329;-55
2021/11/11 12:39:37;;;;;;;;;48.50;39.75;;;;;18.71;42.65;102136.78;5055844;28;45526;-57
2021/11/11 12:42:23;;;;;;;;;51.25;42.25;;;;;18.70;42.71;102133.22;5055999;28;45407;-57
2021/11/11 12:45:17;;;;;;;;;50.25;39.50;;;;;18.71;42.71;102129.69;5056336;28;45349;-57
2021/11/11 12:47:49;;;;;;;;;49.50;40.50;;;;;18.73;42.91;102127.03;5067879;27;47214;-57
2021/11/11 12:50:32;;;;;;;;;49.75;39.50;;;;;18.72;42.82;102125.22;5098746;27;45230;-56
2021/11/11 12:53:16;;;;;;;;;46.25;39.00;;;;;18.73;43.04;102132.34;5098690;27;45459;-56
2021/11/11 12:56:11;;;;;;;;;48.50;39.00;;;;;18.74;43.00;102128.81;5099031;27;45268;-56
2021/11/11 12:58:43;;;;;;;;;50.25;39.75;;;;;18.74;42.76;102131.50;5097272;27;47033;-56
2021/11/11 13:01:16;;;;;;;;;47.25;40.00;;;;;18.74;42.86;102134.16;5098569;27;45319;-56
2021/11/11 13:03:56;;;;;;;;;54.00;42.50;;;;;18.72;42.97;102142.13;5098652;27;45286;-56
2021/11/11 13:06:43;;;;;;;;;53.50;40.75;;;;;18.73;42.62;102135.03;5098653;27;45519;-57
2021/11/11 13:09:11;;;;;;;;;48.25;39.25;;;;;18.72;42.80;102131.47;5098403;27;46411;-56
2021/11/11 13:11:43;;;;;;;;;52.75;43.25;;;;;18.72;42.80;102130.56;5098357;27;45176;-57
2021/11/11 13:14:13;;;;;;;;;52.00;41.75;;;;;18.72;42.62;102143.88;5098499;27;45177;-56
2021/11/11 13:16:39;;;;;;;;;51.50;41.25;;;;;18.72;42.87;102138.56;5098619;27;45466;-56
2021/11/11 13:19:04;;;;;;;;;49.50;39.25;;;;;18.70;42.41;102122.56;5098396;27;47043;-57
2021/11/11 13:21:52;;;;;;;;;47.75;39.50;;;;;18.71;42.76;102119.03;5098543;27;45404;-56
2021/11/11 13:54:07;;;;;;;;;48.00;39.50;;;;;18.68;42.64;102096.81;5095831;27;45368;-58
2021/11/11 14:00:53;;;;;;;;;51.00;40.00;;;;;18.67;42.52;102101.25;5075405;28;45434;-58
2021/11/11 15:46:41;;;;;;;;;37.75;32.75;;;;;18.66;42.05;102037.31;5099776;27;45389;-58
2021/11/11 16:04:02;;;;;;;;;37.50;32.25;;;;;18.64;42.11;102055.94;5099852;27;45389;-58
2021/11/11 16:20:08;;;;;;;;;41.00;33.00;;;;;18.65;42.01;102035.53;5099504;27;45319;-58
2021/11/11 16:27:33;;;;;;;;;37.25;32.00;;;;;18.63;42.01;102047.06;5099169;27;46211;-58
2021/11/11 16:30:12;;;;;;;;;37.00;32.00;;;;;18.65;42.16;102054.19;5099178;27;45339;-58
2021/11/11 16:32:38;;;;;;;;;39.50;32.50;;;;;18.62;42.08;102047.97;5096747;27;45766;-58
2021/11/11 16:35:08;;;;;;;;;34.00;29.25;;;;;18.65;42.05;102040.88;5098867;27;45375;-57
2021/11/11 16:37:34;;;;;;;;;35.50;30.00;;;;;18.65;42.13;102038.22;5098664;27;46623;-58
2021/11/11 16:40:00;;;;;;;;;38.50;34.50;;;;;18.66;42.43;102047.97;5098887;27;45443;-57
2021/11/11 16:42:25;;;;;;;;;32.25;29.50;;;;;18.67;42.13;102041.75;5098966;27;45362;-58
2021/11/11 16:44:51;;;;;;;;;36.25;30.50;;;;;18.67;42.20;102036.44;5099278;27;45230;-58
2021/11/11 16:47:16;;;;;;;;;34.00;30.50;;;;;18.67;42.29;102041.75;5098157;27;47160;-58
2021/11/11 16:49:42;;;;;;;;;36.00;31.00;;;;;18.67;42.24;102037.34;5098524;27;45341;-58
2021/11/11 16:52:08;;;;;;;;;36.00;31.00;;;;;18.67;42.42;102037.34;5098570;27;45407;-58
2021/11/11 16:54:33;;;;;;;;;32.00;28.33;;;;;18.70;42.53;102047.09;5098580;27;45420;-58
2021/11/11 16:56:58;;;;;;;;;32.50;29.25;;;;;18.69;42.69;102040.00;5098311;27;46070;-58
2021/11/11 16:59:24;;;;;;;;;33.50;30.75;;;;;18.72;42.54;102045.31;5098472;27;45396;-63
2021/11/11 17:01:50;;;;;;;;;37.00;31.75;;;;;18.71;42.36;102048.88;5098826;27;45195;-59
2021/11/11 17:04:15;;;;;;;;;31.00;29.00;;;;;18.71;42.62;102044.47;5098504;27;45591;-59
2021/11/11 17:06:40;;;;;;;;;31.00;27.00;;;;;18.70;42.38;102053.31;5098097;27;46114;-59
2021/11/11 17:09:06;;;;;;;;;36.00;32.25;;;;;18.71;42.61;102054.22;5098530;27;45262;-58
2021/11/11 17:11:33;;;;;;;;;35.75;31.50;;;;;18.71;42.36;102062.22;5098403;27;45336;-58
2021/11/11 17:13:59;;;;;;;;;37.75;32.25;;;;;18.72;42.78;102066.63;5098370;27;45469;-58
2021/11/11 17:16:26;;;;;;;;;31.50;29.25;;;;;18.72;42.32;102072.84;5098175;27;46291;-59
2021/11/11 17:18:54;;;;;;;;;41.75;31.75;;;;;18.74;42.39;102067.56;5098044;27;45361;-58
2021/11/11 17:21:21;;;;;;;;;32.33;29.00;;;;;18.74;42.53;102064.91;5097984;27;45296;-58
2021/11/11 17:23:59;;;;;;;;;32.75;30.50;;;;;18.75;42.66;102064.00;5098320;27;45364;-58
2021/11/11 17:28:52;;;;;;;;;32.00;31.00;;;;;18.75;42.60;102056.91;5098036;27;45353;-58
2021/11/11 17:31:17;;;;;;;;;37.50;31.50;;;;;18.75;42.62;102056.00;5098340;27;45353;-58
2021/11/11 17:33:44;;;;;;;;;32.67;29.67;;;;;18.74;42.55;102049.78;5098278;27;45508;-58
2021/11/11 17:36:11;;;;;;;;;37.00;31.50;;;;;18.75;42.33;102053.34;5097704;27;46681;-58
2021/11/11 17:38:39;;;;;;;;;37.50;31.75;;;;;18.75;42.32;102054.25;5097698;27;45231;-57
2021/11/11 17:41:05;;;;;;;;;39.00;31.25;;;;;18.75;42.19;102058.66;5098095;27;45352;-58
2021/11/11 17:43:35;;;;;;;;;34.50;30.50;;;;;18.75;42.53;102062.22;5098111;27;45496;-58
2021/11/11 17:46:13;;;;;;;;;32.25;30.75;;;;;18.75;42.48;102056.91;5097974;27;46334;-58
2021/11/11 17:48:44;;;;;;;;;35.50;30.75;;;;;18.76;42.32;102052.47;5097911;27;45328;-58
2021/11/11 17:51:18;;;;;;;;;37.50;33.25;;;;;18.76;42.45;102052.47;5097916;27;45280;-58
2021/11/11 17:53:48;;;;;;;;;38.00;32.00;;;;;18.75;42.29;102054.25;5097969;27;45438;-58
2021/11/11 17:56:13;;;;;;;;;39.25;34.25;;;;;18.75;42.62;102045.34;5097732;27;46389;-58
2021/11/11 17:58:40;;;;;;;;;35.25;32.00;;;;;18.75;42.75;102045.34;5098156;27;45304;-58
2021/11/11 18:01:09;;;;;;;;;38.75;33.00;;;;;18.75;42.30;102053.34;5101304;27;45413;-56
2021/11/11 18:03:36;;;;;;;;;36.25;30.75;;;;;18.73;42.24;102053.34;5101415;27;45284;-58
2021/11/11 18:06:28;;;;;;;;;42.25;34.50;;;;;18.75;42.43;102056.00;5101161;27;47523;-58
2021/11/11 18:08:55;;;;;;;;;36.75;32.50;;;;;18.74;42.20;102063.09;5101149;27;45333;-58
2021/11/11 18:11:26;;;;;;;;;36.75;32.25;;;;;18.75;42.36;102064.91;5101583;27;45339;-58
2021/11/11 18:16:50;;;;;;;;;37.75;32.25;;;;;18.74;42.16;102067.56;5038186;28;46027;-58
2021/11/11 18:19:18;;;;;;;;;40.25;33.75;;;;;18.74;42.37;102075.56;5038184;28;45260;-58
2021/11/11 18:21:44;;;;;;;;;39.00;32.75;;;;;18.73;42.15;102074.66;5038338;28;45314;-58
2021/11/11 18:24:11;;;;;;;;;37.50;32.25;;;;;18.73;42.15;102079.09;5038273;28;45441;-58
2021/11/11 18:26:37;;;;;;;;;39.50;33.25;;;;;18.73;42.06;102077.31;5037846;28;46112;-58
2021/11/11 18:29:33;;;;;;;;;35.75;31.50;;;;;18.72;42.35;102079.94;5038288;28;45489;-58
2021/11/11 18:34:21;;;;;;;;;35.25;32.25;;;;;18.72;42.46;102077.28;5038335;28;45367;-58
2021/11/11 18:36:55;;;;;;;;;37.50;33.00;;;;;18.73;42.23;102073.75;5037214;28;46983;-57
2021/11/11 18:39:25;;;;;;;;;38.25;33.75;;;;;18.73;42.63;102076.41;5037530;28;45416;-58
2021/11/11 18:41:54;;;;;;;;;35.25;32.50;;;;;18.74;42.57;102067.56;5037889;28;45376;-59
2021/11/11 18:44:36;;;;;;;;;34.25;30.25;;;;;18.74;42.59;102065.75;5038127;28;45503;-58
2021/11/11 18:47:40;;;;;;;;;36.75;32.00;;;;;18.75;42.99;102064.00;5037642;28;46234;-59
2021/11/11 18:49:58;;;;;;;;;35.75;31.25;;;;;18.74;42.79;102064.91;5035969;28;45346;-58
2021/11/11 18:52:26;;;;;;;;;41.50;32.75;;;;;18.74;42.81;102064.91;5032741;27;45388;-58
2021/11/11 18:54:52;;;;;;;;;36.50;33.50;;;;;18.73;42.69;102058.69;5100710;27;45284;-58
2021/11/11 18:57:19;;;;;;;;;36.75;31.75;;;;;18.74;42.94;102059.56;5100387;27;46894;-59
2021/11/11 18:59:45;;;;;;;;;34.25;30.00;;;;;18.74;42.98;102063.09;5100552;27;45213;-58
2021/11/11 19:02:11;;;;;;;;;39.25;32.75;;;;;18.74;43.05;102057.78;5100535;27;45225;-58
2021/11/11 19:04:48;;;;;;;;;39.75;31.75;;;;;18.75;42.74;102053.34;5100523;27;45437;-59
2021/11/11 19:07:16;;;;;;;;;38.25;32.00;;;;;18.75;42.84;102053.34;5100164;27;46207;-58
2021/11/11 19:09:42;;;;;;;;;36.00;32.75;;;;;18.75;42.87;102053.34;5099704;27;45419;-58
2021/11/11 19:12:12;;;;;;;;;37.25;33.50;;;;;18.75;42.65;102051.56;5100320;27;45356;-59
2021/11/11 19:14:41;;;;;;;;;35.25;32.00;;;;;18.77;42.85;102053.34;5100122;27;45168;-59
2021/11/11 19:19:38;;;;;;;;;39.75;33.00;;;;;18.75;42.90;102051.56;5100105;27;45192;-58
2021/11/11 19:22:04;;;;;;;;;37.00;32.50;;;;;18.75;42.71;102054.25;5100272;27;45426;-57
2021/11/11 19:24:30;;;;;;;;;41.50;32.50;;;;;18.75;42.61;102051.56;5100288;27;45489;-58
2021/11/11 19:26:56;;;;;;;;;44.50;33.25;;;;;18.75;42.66;102051.56;5099823;27;47133;-58
2021/11/11 19:29:24;;;;;;;;;44.25;34.50;;;;;18.75;42.83;102048.00;5100126;27;45693;-58
2021/11/11 19:31:56;;;;;;;;;37.00;32.00;;;;;18.74;42.86;102047.13;5100216;27;45301;-59
2021/11/11 19:34:28;;;;;;;;;41.50;34.00;;;;;18.74;42.65;102047.13;5100395;27;45407;-58
2021/11/11 19:37:22;;;;;;;;;32.50;29.50;;;;;18.74;42.78;102048.91;5099565;27;46144;-59
2021/11/11 19:42:48;;;;;;;;;39.00;33.00;;;;;18.73;42.58;102047.13;5099868;27;45474;-58
2021/11/11 20:00:39;;;;;;;;;38.25;32.75;;;;;18.74;42.53;102039.13;5099486;27;45530;-59
2021/11/11 20:03:12;;;;;;;;;43.00;34.75;;;;;18.75;42.46;102056.00;5099219;27;45354;-58
2021/11/11 20:05:47;;;;;;;;;39.75;32.25;;;;;18.75;42.59;102053.34;5099746;27;45317;-58
2021/11/11 20:08:19;;;;;;;;;36.25;32.50;;;;;18.75;42.46;102042.69;5099373;27;47248;-59
2021/11/11 20:37:42;;;;;;;;;35.75;31.75;;;;;18.74;42.51;102032.94;5096860;27;45397;-58
2021/11/11 21:01:55;;;;;;;;;55.50;44.00;;;;;18.74;42.50;102015.16;5035356;28;45411;-58
2021/11/11 21:04:21;;;;;;;;;61.00;48.00;;;;;18.75;42.45;102005.41;5035605;28;45386;-58
2021/11/11 21:12:04;;;;;;;;;62.25;49.25;;;;;18.76;42.46;102004.53;5035688;28;45466;-58
2021/11/11 21:17:08;;;;;;;;;60.25;47.75;;;;;18.74;42.35;101985.84;5035328;28;45770;-58
2021/11/11 21:19:37;;;;;;;;;58.75;47.00;;;;;18.74;42.21;101985.00;5035795;28;45256;-59
2021/11/11 21:22:05;;;;;;;;;59.25;47.75;;;;;18.74;42.06;101975.19;5044948;28;47105;-61
2021/11/11 21:24:33;;;;;;;;;60.00;48.00;;;;;18.74;42.11;101983.19;5055487;28;45466;-58
2021/11/11 21:27:00;;;;;;;;;58.25;46.75;;;;;18.76;42.01;101977.88;5081827;27;45321;-58
2021/11/11 21:29:27;;;;;;;;;57.25;46.25;;;;;18.74;42.29;101971.66;5098444;27;45168;-57
2021/11/11 21:31:54;;;;;;;;;55.00;44.50;;;;;18.74;41.99;101961.00;5097878;27;46468;-58
2021/11/11 21:34:26;;;;;;;;;58.00;46.00;;;;;18.74;41.83;101972.53;5096600;27;45344;-58
2021/11/11 21:39:43;;;;;;;;;52.75;42.75;;;;;18.73;41.98;101964.56;5098178;27;45425;-58
2021/11/11 21:42:11;;;;;;;;;56.75;45.00;;;;;18.73;41.64;101964.56;5097822;27;46362;-58
2021/11/11 21:44:38;;;;;;;;;57.25;46.00;;;;;18.72;41.64;101971.66;5097844;27;45432;-57
2021/11/11 21:47:05;;;;;;;;;57.25;46.00;;;;;18.72;41.98;101960.09;5098004;27;45385;-57
2021/11/11 21:49:31;;;;;;;;;57.50;44.25;;;;;18.72;42.00;101966.31;5098093;27;45376;-58
2021/11/11 21:51:57;;;;;;;;;55.50;44.25;;;;;18.74;42.08;101969.00;5097715;27;45944;-58
2021/11/11 21:54:26;;;;;;;;;57.75;44.50;;;;;18.73;41.71;101961.88;5097682;27;45550;-58
2021/11/11 21:57:03;;;;;;;;;53.50;43.00;;;;;18.73;41.95;101962.78;5097776;27;45432;-58
2021/11/11 22:23:57;;;;;;;;;51.00;41.25;;;;;18.70;42.18;101946.78;5097577;27;45922;-57
2021/11/11 22:26:43;;;;;;;;;50.00;39.50;;;;;18.68;42.14;101940.56;5097688;27;45364;-57
2021/11/11 22:29:25;;;;;;;;;51.00;42.00;;;;;18.69;42.08;101933.47;5097704;27;45175;-58
2021/11/11 22:34:35;;;;;;;;;50.00;42.00;;;;;18.69;42.25;101933.47;5097448;27;45440;-57
2021/11/11 22:37:03;;;;;;;;;52.00;42.75;;;;;18.68;41.91;101929.00;5097203;27;45415;-57
2021/11/11 22:39:28;;;;;;;;;45.75;38.50;;;;;18.67;41.97;101919.25;5097449;27;45243;-57
2021/11/11 22:41:54;;;;;;;;;50.00;40.00;;;;;18.66;42.09;101915.69;5097783;27;45201;-57
2021/11/11 22:44:21;;;;;;;;;49.00;40.25;;;;;18.67;41.81;101919.25;5097531;27;47151;-57
2021/11/11 22:46:47;;;;;;;;;53.00;42.25;;;;;18.67;41.81;101919.25;5100399;27;45395;-57
2021/11/11 22:49:12;;;;;;;;;46.75;39.25;;;;;18.64;41.95;101904.16;5101086;27;45316;-57
2021/11/11 22:51:38;;;;;;;;;48.75;41.75;;;;;18.65;41.73;101907.72;5101094;27;45396;-57
2021/11/11 22:56:55;;;;;;;;;49.25;40.00;;;;;18.65;41.80;101915.69;5100800;27;45289;-57
2021/11/11 22:59:44;;;;;;;;;48.50;41.00;;;;;18.65;41.71;101911.28;5100896;27;45213;-57
2021/11/11 23:02:20;;;;;;;;;48.00;40.00;;;;;18.63;41.59;101913.03;5100915;27;45316;-57
2021/11/11 23:07:46;;;;;;;;;47.00;38.50;;;;;18.61;41.63;101910.34;5100483;27;45246;-57
2021/11/11 23:25:31;;;;;;;;;46.75;39.00;;;;;18.57;41.36;101900.56;5100148;27;45981;-57
2021/11/11 23:33:28;;;;;;;;;46.25;38.00;;;;;18.56;41.22;101893.50;5100620;27;45293;-57
2021/11/11 23:35:56;;;;;;;;;48.50;39.00;;;;;18.57;41.24;101895.25;5100179;27;47235;-57
2021/11/11 23:38:25;;;;;;;;;50.00;39.25;;;;;18.55;41.17;101883.72;5099733;27;45447;-56
2021/11/11 23:40:51;;;;;;;;;49.25;40.00;;;;;18.55;41.04;101886.38;5100119;27;45277;-57
2021/11/11 23:43:17;;;;;;;;;48.50;38.00;;;;;18.55;41.13;101886.38;5100411;27;45518;-58
2021/11/11 23:45:46;;;;;;;;;45.00;36.75;;;;;18.55;40.67;101882.84;5099863;27;46895;-56
2021/11/11 23:48:17;;;;;;;;;46.50;38.00;;;;;18.54;41.07;101889.03;5099961;27;45415;-55
